Terminal Aerodrome Forecast
Issued by NWS Tampa Bay Area, FL

Home | Current Version | Previous Version | Text Only | Print | Product List | Glossary On
Versions: 1 2 3 4 5 6 7 8 9 10 11 12 13 14
000
FTUS42 KTBW 232341
TAFFMY
TAF
KFMY 232341Z 2400/2424 VRB06KT P6SM SCT045 SCT100
     FM240200 VRB05KT P6SM SCT045
     FM240900 VRB05KT 6SM BR BKN020
     FM241400 29010KT P6SM BKN030
     FM241600 29014G22KT P6SM BKN040=

USA.gov is the U.S. government's official web portal to all federal, state and local government web resources and services.